createdAt,value
2018-04-17T00:00:18.850Z,10.97
2018-04-17T00:02:46.320Z,13.03
2018-04-17T00:05:13.987Z,16.20
2018-04-17T00:07:41.582Z,11.70
2018-04-17T00:10:10.435Z,12.60
2018-04-17T00:12:38.210Z,17.63
2018-04-17T00:15:06.098Z,13.60
2018-04-17T00:17:34.303Z,17.20
2018-04-17T00:20:01.811Z,21.93
2018-04-17T00:22:29.443Z,19.27
2018-04-17T00:24:56.880Z,21.73
2018-04-17T00:27:24.352Z,16.03
2018-04-17T00:29:52.031Z,13.37
2018-04-17T00:32:19.602Z,20.17
2018-04-17T00:34:47.171Z,30.33
2018-04-17T00:37:14.866Z,19.27
2018-04-17T00:39:43.306Z,15.87
2018-04-17T00:42:10.844Z,16.00
2018-04-17T00:44:38.608Z,17.97
2018-04-17T00:47:06.036Z,13.93
2018-04-17T00:49:34.411Z,14.13
2018-04-17T00:52:01.869Z,15.70
2018-04-17T00:54:30.095Z,17.27
2018-04-17T00:56:57.530Z,19.17
2018-04-17T00:59:25.034Z,13.80
2018-04-17T01:01:52.459Z,13.80
2018-04-17T01:04:19.878Z,13.53
2018-04-17T01:06:47.558Z,13.10
2018-04-17T01:09:14.987Z,15.70
2018-04-17T01:11:43.529Z,13.80
2018-04-17T01:14:10.961Z,14.57
2018-04-17T01:16:38.457Z,18.53
2018-04-17T01:19:05.910Z,14.40
2018-04-17T01:21:35.034Z,14.87
2018-04-17T01:24:03.429Z,14.43
2018-04-17T01:26:31.172Z,14.80
2018-04-17T01:29:01.651Z,15.80
2018-04-17T01:31:29.130Z,18.67
2018-04-17T01:33:56.786Z,35.83
2018-04-17T01:36:24.400Z,20.97
2018-04-17T01:38:51.874Z,19.57
2018-04-17T01:41:19.495Z,18.20
2018-04-17T01:43:47.722Z,17.97
2018-04-17T01:46:15.254Z,16.77
2018-04-17T01:48:42.709Z,21.43
2018-04-17T01:51:10.161Z,24.77
2018-04-17T01:53:37.622Z,36.73
2018-04-17T01:56:05.066Z,22.30
2018-04-17T01:58:33.282Z,34.50
2018-04-17T02:01:00.719Z,27.10
2018-04-17T02:03:28.152Z,22.07
2018-04-17T02:05:56.383Z,19.17
2018-04-17T02:08:23.810Z,18.67
2018-04-17T02:10:51.298Z,17.83
2018-04-17T02:13:18.958Z,15.93
2018-04-17T02:15:46.382Z,17.13
2018-04-17T02:18:13.996Z,15.53
2018-04-17T02:20:41.425Z,14.30
2018-04-17T02:23:10.035Z,21.37
2018-04-17T02:25:38.247Z,17.57
2018-04-17T02:28:05.966Z,17.33
2018-04-17T02:30:33.596Z,23.47
2018-04-17T02:33:01.031Z,18.03
2018-04-17T02:35:28.473Z,17.87
2018-04-17T02:37:56.732Z,16.87
2018-04-17T02:40:24.158Z,15.50
2018-04-17T02:42:51.645Z,15.60
2018-04-17T02:45:19.237Z,14.90
2018-04-17T02:47:47.745Z,16.83
2018-04-17T02:50:15.414Z,14.20
2018-04-17T02:52:42.846Z,15.20
2018-04-17T02:55:10.296Z,15.57
2018-04-17T02:57:38.510Z,15.70
2018-04-17T03:00:06.424Z,15.30
2018-04-17T03:02:34.606Z,15.50
2018-04-17T03:05:02.168Z,16.17
2018-04-17T03:07:30.371Z,15.77
2018-04-17T03:09:57.966Z,16.17
2018-04-17T03:12:26.939Z,15.87
2018-04-17T03:14:54.939Z,15.40
2018-04-17T03:17:23.051Z,15.77
2018-04-17T03:19:51.405Z,16.60
2018-04-17T03:22:19.929Z,16.17
2018-04-17T03:24:47.366Z,15.40
2018-04-17T03:27:14.853Z,18.03
2018-04-17T03:29:42.258Z,17.50
2018-04-17T03:32:10.480Z,16.63
2018-04-17T03:34:37.913Z,18.93
2018-04-17T03:37:06.075Z,28.27
2018-04-17T03:39:34.185Z,19.50
2018-04-17T03:42:02.348Z,18.00
2018-04-17T03:44:30.326Z,19.43
2018-04-17T03:46:58.511Z,17.47
2018-04-17T03:49:25.966Z,21.03
2018-04-17T03:51:54.395Z,30.43
2018-04-17T03:54:22.822Z,19.83
2018-04-17T03:56:50.230Z,20.57
2018-04-17T03:59:18.669Z,17.97
2018-04-17T04:01:46.120Z,17.23
2018-04-17T04:04:13.535Z,19.63
2018-04-17T04:06:41.229Z,18.30
2018-04-17T04:09:08.677Z,17.57
2018-04-17T04:11:36.374Z,21.67
2018-04-17T04:14:05.595Z,21.63
2018-04-17T04:16:45.981Z,22.73
2018-04-17T04:19:26.275Z,18.37
2018-04-17T04:22:05.755Z,16.50
2018-04-17T04:24:46.582Z,16.97
2018-04-17T04:27:14.042Z,16.33
2018-04-17T04:29:41.570Z,17.20
2018-04-17T04:32:08.999Z,17.47
2018-04-17T04:34:37.203Z,17.03
2018-04-17T04:37:04.943Z,20.30
2018-04-17T04:39:33.185Z,16.37
2018-04-17T04:42:00.672Z,16.97
2018-04-17T04:44:28.884Z,15.93
2018-04-17T04:46:56.341Z,20.63
2018-04-17T04:49:23.768Z,20.53
2018-04-17T04:51:51.214Z,20.40
2018-04-17T04:54:19.596Z,20.37
2018-04-17T04:56:48.843Z,20.90
2018-04-17T04:59:16.330Z,19.60
2018-04-17T05:01:43.796Z,19.13
2018-04-17T05:04:12.039Z,24.40
2018-04-17T05:06:39.663Z,18.73
2018-04-17T05:09:07.116Z,20.87
2018-04-17T05:11:35.414Z,20.17
2018-04-17T05:14:02.925Z,23.97
2018-04-17T05:16:31.871Z,23.00
2018-04-17T05:18:59.390Z,25.60
2018-04-17T05:21:27.588Z,25.40
2018-04-17T05:23:55.026Z,19.53
2018-04-17T05:26:23.486Z,19.67
2018-04-17T05:28:50.977Z,17.27
2018-04-17T05:31:18.457Z,15.80
2018-04-17T05:33:47.020Z,18.07
2018-04-17T05:36:14.481Z,18.67
2018-04-17T05:38:41.969Z,17.27
2018-04-17T05:41:10.075Z,15.30
2018-04-17T05:43:37.542Z,16.07
2018-04-17T05:46:05.755Z,13.80
2018-04-17T05:48:33.183Z,14.10
2018-04-17T05:51:01.383Z,14.03
2018-04-17T05:53:29.026Z,14.27
2018-04-17T05:55:56.694Z,14.00
2018-04-17T05:58:25.050Z,12.87
2018-04-17T06:00:53.737Z,12.83
2018-04-17T06:03:21.967Z,13.57
2018-04-17T06:05:49.429Z,13.03
2018-04-17T06:08:16.882Z,12.13
2018-04-17T06:10:44.321Z,12.00
2018-04-17T06:13:11.755Z,11.27
2018-04-17T06:15:39.981Z,11.83
2018-04-17T06:18:07.510Z,12.57
2018-04-17T06:20:35.029Z,13.03
2018-04-17T06:23:03.715Z,12.43
2018-04-17T06:25:32.103Z,11.93
2018-04-17T06:28:00.424Z,11.87
2018-04-17T06:30:27.834Z,11.00
2018-04-17T06:32:56.058Z,11.67
2018-04-17T06:35:24.083Z,11.33
2018-04-17T06:37:52.626Z,11.80
2018-04-17T06:40:20.080Z,11.60
2018-04-17T06:42:47.801Z,10.03
2018-04-17T06:45:15.583Z,10.50
2018-04-17T06:47:43.735Z,8.70
2018-04-17T06:50:11.113Z,8.90
2018-04-17T06:52:38.655Z,9.70
2018-04-17T06:55:06.475Z,9.83
2018-04-17T06:57:34.683Z,8.67
2018-04-17T07:00:02.954Z,8.70
2018-04-17T07:02:32.037Z,9.27
2018-04-17T07:05:00.258Z,9.03
2018-04-17T07:07:27.698Z,7.63
2018-04-17T07:09:55.207Z,7.73
2018-04-17T07:12:22.643Z,7.43
2018-04-17T07:14:50.352Z,7.00
2018-04-17T07:17:17.779Z,7.27
2018-04-17T07:19:45.341Z,6.63
2018-04-17T07:22:12.773Z,7.53
2018-04-17T07:24:40.670Z,6.50
2018-04-17T07:27:08.134Z,6.50
2018-04-17T07:29:35.538Z,6.30
2018-04-17T07:32:03.008Z,6.13
2018-04-17T07:34:37.558Z,7.27
2018-04-17T07:37:05.052Z,7.13
2018-04-17T07:39:33.449Z,7.23
2018-04-17T07:42:00.962Z,6.90
2018-04-17T07:44:28.833Z,7.03
2018-04-17T07:47:08.667Z,7.13
2018-04-17T07:49:36.100Z,7.20
2018-04-17T07:52:03.532Z,6.77
2018-04-17T07:54:32.046Z,7.87
2018-04-17T07:57:00.446Z,7.90
2018-04-17T07:59:28.092Z,7.53
2018-04-17T08:01:55.775Z,6.93
2018-04-17T08:04:23.595Z,6.77
2018-04-17T08:06:51.135Z,6.33
2018-04-17T08:09:23.858Z,6.10
2018-04-17T08:11:51.342Z,6.00
2018-04-17T08:14:18.818Z,6.43
2018-04-17T08:16:46.351Z,6.33
2018-04-17T08:19:14.312Z,6.77
2018-04-17T08:21:41.742Z,6.33
2018-04-17T08:24:09.344Z,5.73
2018-04-17T08:26:38.747Z,5.67
2018-04-17T08:29:06.495Z,6.03
2018-04-17T08:31:33.954Z,5.33
2018-04-17T08:34:01.388Z,5.00
2018-04-17T08:36:28.880Z,5.70
2018-04-17T08:38:56.327Z,4.67
2018-04-17T08:41:23.773Z,5.67
2018-04-17T09:53:43.035Z,3.20
2018-04-17T09:56:10.473Z,2.50
2018-04-17T09:58:38.064Z,2.70
2018-04-17T10:01:24.411Z,3.10
2018-04-17T10:03:52.623Z,3.00
2018-04-17T10:06:20.453Z,3.13
2018-04-17T10:08:49.695Z,3.37
2018-04-17T10:11:17.071Z,3.27
2018-04-17T10:13:44.797Z,3.10
2018-04-17T10:16:12.255Z,3.20
2018-04-17T10:18:39.691Z,3.13
2018-04-17T10:21:08.438Z,2.97
2018-04-17T10:23:35.871Z,3.40
2018-04-17T10:26:03.302Z,3.47
2018-04-17T10:28:31.099Z,3.20
2018-04-17T10:30:58.526Z,3.27
2018-04-17T10:33:25.998Z,3.37
2018-04-17T10:35:53.646Z,3.28
2018-04-17T10:38:21.304Z,3.00
2018-04-17T10:40:49.508Z,4.00
2018-04-17T10:43:16.965Z,3.37
2018-04-17T10:45:44.406Z,3.42
2018-04-17T10:48:11.879Z,3.08
2018-04-17T10:50:39.358Z,3.73
2018-04-17T10:53:07.000Z,3.23
2018-04-17T10:55:35.180Z,4.17
2018-04-17T10:58:02.711Z,3.83
2018-04-17T11:00:30.898Z,3.67
2018-04-17T11:02:58.797Z,3.90
2018-04-17T11:05:26.267Z,3.55
2018-04-17T11:07:53.720Z,3.90
2018-04-17T11:10:21.538Z,4.07
2018-04-17T11:12:48.936Z,3.47
2018-04-17T11:15:16.434Z,4.20
2018-04-17T11:17:44.709Z,3.67
2018-04-17T11:20:12.958Z,3.90
2018-04-17T11:22:40.419Z,4.00
2018-04-17T11:25:07.888Z,3.62
2018-04-17T11:27:35.321Z,4.03
2018-04-17T11:30:04.884Z,3.25
2018-04-17T11:32:33.567Z,3.90
2018-04-17T11:35:02.791Z,3.45
2018-04-17T11:37:31.079Z,3.30
2018-04-17T11:39:59.211Z,3.60
2018-04-17T11:42:27.475Z,3.10
2018-04-17T11:44:56.467Z,3.70
2018-04-17T11:47:23.908Z,3.42
2018-04-17T11:49:51.327Z,3.50
2018-04-17T11:52:18.755Z,3.40
2018-04-17T11:54:47.794Z,3.20
2018-04-17T11:57:15.254Z,3.22
2018-04-17T11:59:42.692Z,3.33
2018-04-17T12:02:11.013Z,2.97
2018-04-17T12:04:39.005Z,3.60
2018-04-17T12:07:06.427Z,3.35
2018-04-17T12:09:33.900Z,3.42
2018-04-17T12:12:01.507Z,3.03
2018-04-17T12:14:28.943Z,3.53
2018-04-17T12:16:57.139Z,3.67
2018-04-17T12:19:24.643Z,3.33
2018-04-17T12:21:52.057Z,3.25
2018-04-17T12:24:20.400Z,3.80
2018-04-17T12:26:48.027Z,3.60
2018-04-17T12:29:15.487Z,4.10
2018-04-17T12:31:43.268Z,3.67
2018-04-17T12:34:11.336Z,3.72
2018-04-17T12:36:38.813Z,3.95
2018-04-17T12:39:06.350Z,3.28
2018-04-17T12:41:33.762Z,4.25
2018-04-17T12:44:01.691Z,4.43
2018-04-17T12:46:29.119Z,4.25
2018-04-17T12:48:56.586Z,3.78
2018-04-17T12:51:24.265Z,4.55
2018-04-17T12:53:51.705Z,4.85
2018-04-17T12:56:19.153Z,4.25
2018-04-17T12:58:46.632Z,4.10
2018-04-17T13:01:14.066Z,4.65
2018-04-17T13:03:41.519Z,4.45
2018-04-17T13:06:09.616Z,4.20
2018-04-17T13:08:37.087Z,4.60
2018-04-17T13:11:04.554Z,5.05
2018-04-17T13:13:32.753Z,5.12
2018-04-17T13:16:01.009Z,4.53
2018-04-17T13:18:28.939Z,5.25
2018-04-17T13:20:56.370Z,4.62
2018-04-17T13:23:23.878Z,5.18
2018-04-17T13:25:51.329Z,4.72
2018-04-17T13:28:18.778Z,4.15
2018-04-17T13:30:46.214Z,4.15
2018-04-17T13:33:13.643Z,4.65
2018-04-17T13:35:41.855Z,4.93
2018-04-17T13:38:09.291Z,4.35
2018-04-17T13:40:37.389Z,4.57
2018-04-17T13:43:04.865Z,4.43
2018-04-17T13:45:32.750Z,5.72
2018-04-17T13:48:00.203Z,4.60
2018-04-17T13:50:27.633Z,5.13
2018-04-17T13:52:55.683Z,4.63
2018-04-17T13:55:23.874Z,4.60
2018-04-17T13:57:51.335Z,4.70
2018-04-17T14:00:18.766Z,4.72
2018-04-17T14:02:47.046Z,4.43
2018-04-17T14:05:14.623Z,5.43
2018-04-17T14:07:42.070Z,5.63
2018-04-17T14:10:09.542Z,4.68
2018-04-17T14:12:37.023Z,4.45
2018-04-17T14:15:04.471Z,5.22
2018-04-17T14:17:32.798Z,5.57
2018-04-17T14:20:02.556Z,4.77
2018-04-17T14:22:29.979Z,5.07
2018-04-17T14:25:02.523Z,5.07
2018-04-17T14:27:29.975Z,4.12
2018-04-17T14:29:57.406Z,5.07
2018-04-17T14:32:24.891Z,5.30
2018-04-17T14:34:52.379Z,4.40
2018-04-17T14:37:20.562Z,5.10
2018-04-17T14:39:49.025Z,5.40
2018-04-17T14:42:16.567Z,5.23
2018-04-17T14:44:44.017Z,4.72
2018-04-17T14:47:11.454Z,5.57
2018-04-17T14:49:39.654Z,5.13
2018-04-17T14:52:07.285Z,5.43
2018-04-17T14:54:35.474Z,4.87
2018-04-17T14:57:02.979Z,5.70
2018-04-17T14:59:30.447Z,5.67
2018-04-17T15:01:59.386Z,5.17
2018-04-17T15:04:26.845Z,5.03
2018-04-17T15:06:54.278Z,4.87
2018-04-17T15:09:21.758Z,5.10
2018-04-17T15:11:49.419Z,5.23
2018-04-17T15:14:16.850Z,4.80
2018-04-17T15:16:44.496Z,5.62
2018-04-17T15:19:13.201Z,4.63
2018-04-17T15:21:41.314Z,4.72
2018-04-17T15:24:08.766Z,5.00
2018-04-17T15:26:37.199Z,5.90
2018-04-17T15:29:05.416Z,4.85
2018-04-17T15:31:32.896Z,4.95
2018-04-17T15:34:00.321Z,5.53
2018-04-17T15:36:27.810Z,5.62
2018-04-17T15:38:55.237Z,5.33
2018-04-17T15:41:22.733Z,5.17
2018-04-17T15:43:50.782Z,5.07
2018-04-17T15:46:18.218Z,5.20
2018-04-17T15:48:45.691Z,5.60
2018-04-17T15:51:13.147Z,5.47
2018-04-17T15:53:41.580Z,5.33
2018-04-17T15:56:09.095Z,4.63
2018-04-17T15:58:36.524Z,4.90
2018-04-17T16:01:04.176Z,5.10
2018-04-17T16:03:32.269Z,4.83
2018-04-17T16:06:00.402Z,4.93
2018-04-17T16:08:28.643Z,5.10
2018-04-17T16:10:56.318Z,4.97
2018-04-17T16:13:23.748Z,5.77
2018-04-17T16:15:51.182Z,5.67
2018-04-17T16:18:18.914Z,4.93
2018-04-17T16:20:46.495Z,5.77
2018-04-17T16:23:14.696Z,4.97
2018-04-17T16:25:42.139Z,5.23
2018-04-17T16:28:09.574Z,5.43
2018-04-17T16:30:37.138Z,4.70
2018-04-17T16:33:05.933Z,4.80
2018-04-17T16:35:33.314Z,5.03
2018-04-17T16:38:00.997Z,4.93
2018-04-17T16:40:29.442Z,5.80
2018-04-17T16:42:57.496Z,5.10
2018-04-17T16:45:25.886Z,4.93
2018-04-17T16:47:54.102Z,4.87
2018-04-17T16:50:22.553Z,5.27
2018-04-17T16:52:50.758Z,5.10
2018-04-17T16:55:19.210Z,6.40
2018-04-17T16:57:46.714Z,9.43
2018-04-17T17:00:14.179Z,6.67
2018-04-17T17:02:41.846Z,4.53
2018-04-17T17:05:09.295Z,12.10
2018-04-17T17:07:36.809Z,8.38
2018-04-17T17:10:04.268Z,5.10
2018-04-17T17:12:31.992Z,4.80
2018-04-17T17:15:03.633Z,4.43
2018-04-17T17:17:31.080Z,4.45
2018-04-17T17:19:58.510Z,4.20
2018-04-17T17:22:25.996Z,4.37
2018-04-17T17:24:53.430Z,3.57
2018-04-17T17:27:22.086Z,4.40
2018-04-17T17:29:50.277Z,4.53
2018-04-17T17:32:17.793Z,6.83
2018-04-17T17:34:45.242Z,5.07
2018-04-17T17:37:12.681Z,4.20
2018-04-17T17:39:40.141Z,5.10
2018-04-17T17:42:08.946Z,4.30
2018-04-17T17:44:36.603Z,4.70
2018-04-17T17:47:05.245Z,5.10
2018-04-17T17:49:32.681Z,3.93
2018-04-17T17:52:01.000Z,4.83
2018-04-17T17:54:29.600Z,4.83
2018-04-17T17:56:57.555Z,5.37
2018-04-17T17:59:26.056Z,4.93
2018-04-17T18:01:53.519Z,5.07
2018-04-17T18:04:21.181Z,4.97
2018-04-17T18:06:49.081Z,5.13
2018-04-17T18:09:17.282Z,5.20
2018-04-17T18:11:44.814Z,5.13
2018-04-17T18:14:14.410Z,4.67
2018-04-17T18:16:41.862Z,5.63
2018-04-17T18:19:09.322Z,5.10
2018-04-17T18:24:10.030Z,5.10
2018-04-17T18:26:37.675Z,4.50
2018-04-17T18:29:05.037Z,5.40
2018-04-17T18:31:32.490Z,5.57
2018-04-17T18:34:00.711Z,6.10
2018-04-17T18:36:29.069Z,5.30
2018-04-17T18:38:59.062Z,5.23
2018-04-17T18:44:06.601Z,5.33
2018-04-17T18:46:34.874Z,5.50
2018-04-17T18:49:02.320Z,6.07
2018-04-17T18:51:30.254Z,5.97
2018-04-17T18:54:05.198Z,5.30
2018-04-17T18:56:33.428Z,5.30
2018-04-17T18:59:00.911Z,5.63
2018-04-17T19:01:29.270Z,5.87
2018-04-17T19:03:56.951Z,6.87
2018-04-17T19:06:24.426Z,6.93
2018-04-17T19:08:52.648Z,7.90
2018-04-17T19:11:20.762Z,7.27
2018-04-17T19:13:48.941Z,7.47
2018-04-17T19:16:16.354Z,7.40
2018-04-17T19:18:45.413Z,7.03
2018-04-17T19:21:12.876Z,7.07
2018-04-17T19:23:40.308Z,6.90
2018-04-17T19:26:08.884Z,7.17
2018-04-17T19:28:36.812Z,6.60
2018-04-17T19:31:04.236Z,6.60
2018-04-17T19:33:31.781Z,6.60
2018-04-17T19:35:59.971Z,7.10
2018-04-17T19:38:27.438Z,6.97
2018-04-17T19:40:54.937Z,6.73
2018-04-17T19:43:23.998Z,6.60
2018-04-17T19:45:51.595Z,6.60
2018-04-17T19:48:19.365Z,6.40
2018-04-17T19:50:46.792Z,6.90
2018-04-17T19:53:14.262Z,6.50
2018-04-17T19:55:41.698Z,6.50
2018-04-17T19:58:09.136Z,7.60
2018-04-17T20:00:36.559Z,7.90
2018-04-17T20:03:04.249Z,7.70
2018-04-17T20:05:32.434Z,8.20
2018-04-17T20:07:59.915Z,8.10
2018-04-17T20:10:27.351Z,8.43
2018-04-17T20:12:55.731Z,8.57
2018-04-17T20:15:23.246Z,7.43
2018-04-17T20:17:51.516Z,6.80
2018-04-17T20:20:18.947Z,6.60
2018-04-17T20:22:46.411Z,6.27
2018-04-17T20:25:13.898Z,6.53
2018-04-17T20:27:41.337Z,6.57
2018-04-17T20:30:08.782Z,6.80
2018-04-17T20:32:36.873Z,7.77
2018-04-17T20:35:04.309Z,6.63
2018-04-17T20:37:31.971Z,7.10
2018-04-17T20:39:59.423Z,6.60
2018-04-17T20:42:26.902Z,6.30
2018-04-17T20:44:54.310Z,5.93
2018-04-17T20:47:21.726Z,7.17
2018-04-17T20:49:49.994Z,6.50
2018-04-17T20:52:17.430Z,7.23
2018-04-17T20:54:44.871Z,6.70
2018-04-17T20:57:13.187Z,6.00
2018-04-17T20:59:40.641Z,6.40
2018-04-17T21:02:08.580Z,5.73
2018-04-17T21:04:36.790Z,5.33
2018-04-17T21:07:04.436Z,5.27
2018-04-17T21:09:31.855Z,5.93
2018-04-17T21:11:59.290Z,5.70
2018-04-17T21:14:27.592Z,5.50
2018-04-17T21:16:55.094Z,5.20
2018-04-17T21:19:22.580Z,5.30
2018-04-17T21:21:50.203Z,5.70
2018-04-17T21:24:17.914Z,5.57
2018-04-17T21:26:46.097Z,5.87
2018-04-17T21:29:14.306Z,5.60
2018-04-17T21:31:41.734Z,5.43
2018-04-17T21:34:09.214Z,5.20
2018-04-17T21:36:36.659Z,4.97
2018-04-17T21:39:04.106Z,5.47
2018-04-17T21:41:32.366Z,5.80
2018-04-17T21:43:59.804Z,6.43
2018-04-17T21:46:27.235Z,6.07
2018-04-17T21:48:54.995Z,6.80
2018-04-17T21:51:22.421Z,5.83
2018-04-17T21:53:49.849Z,5.30
2018-04-17T21:56:18.807Z,5.63
2018-04-17T21:58:46.439Z,5.90
2018-04-17T22:01:13.898Z,5.90
2018-04-17T22:03:41.363Z,5.47
2018-04-17T22:06:08.835Z,5.80
2018-04-17T22:08:36.545Z,5.57
2018-04-17T22:11:05.220Z,5.47
2018-04-17T22:13:34.691Z,6.00
2018-04-17T22:16:02.143Z,6.00
2018-04-17T22:18:29.599Z,5.87
2018-04-17T22:20:58.094Z,6.10
2018-04-17T22:23:25.553Z,5.63
2018-04-17T22:25:52.991Z,5.50
2018-04-17T22:28:20.433Z,5.50
2018-04-17T22:30:47.858Z,5.77
2018-04-17T22:33:15.291Z,5.63
2018-04-17T22:35:42.722Z,5.30
2018-04-17T22:38:10.198Z,5.33
2018-04-17T22:40:37.647Z,5.87
2018-04-17T22:43:05.226Z,5.67
2018-04-17T22:45:32.673Z,5.97
2018-04-17T22:48:00.334Z,6.17
2018-04-17T22:50:27.785Z,5.87
2018-04-17T22:52:55.236Z,6.53
2018-04-17T22:55:22.690Z,6.67
2018-04-17T22:57:50.119Z,6.27
2018-04-17T23:00:17.578Z,6.57
2018-04-17T23:02:45.003Z,6.13
2018-04-17T23:05:12.430Z,6.07
2018-04-17T23:07:40.510Z,6.13
2018-04-17T23:10:07.943Z,5.73
2018-04-17T23:12:36.363Z,6.30
2018-04-17T23:15:03.882Z,5.90
2018-04-17T23:17:31.475Z,6.00
2018-04-17T23:19:58.903Z,6.70
2018-04-17T23:22:26.343Z,6.70
2018-04-17T23:24:54.720Z,6.30
2018-04-17T23:27:22.199Z,6.87
2018-04-17T23:29:49.628Z,6.17
2018-04-17T23:32:17.118Z,6.37
2018-04-17T23:34:45.314Z,6.67
2018-04-17T23:37:12.761Z,6.33
2018-04-17T23:39:40.207Z,6.53
2018-04-17T23:42:08.161Z,7.00
2018-04-17T23:44:35.654Z,6.63
2018-04-17T23:47:03.173Z,6.57
2018-04-17T23:49:30.595Z,6.53
2018-04-17T23:51:58.922Z,6.80
2018-04-17T23:54:26.400Z,6.50
2018-04-17T23:56:55.783Z,6.37
2018-04-17T23:59:23.227Z,6.90
